Time;durP1;ratioP1;P1;durP2;ratioP2;P2;SDS_P1;SDS_P2;PMS_P1;PMS_P2;Temp;Humidity;BMP_temperature;BMP_pressure;BME280_temperature;BME280_humidity;BME280_pressure;Samples;Min_cycle;Max_cycle;Signal;HPM_P1;HPM_P2
2021/06/05 00:01:43;;;;;;;115.43;99.07;;;18.40;99.90;;;;;;4995113;28;20606;-84
2021/06/05 00:04:09;;;;;;;114.30;96.63;;;18.40;99.90;;;;;;4993841;28;20179;-84
2021/06/05 00:06:35;;;;;;;112.63;95.73;;;18.40;99.90;;;;;;4993904;28;20179;-84
2021/06/05 00:09:02;;;;;;;116.30;96.83;;;18.20;99.90;;;;;;4994822;28;20542;-83
2021/06/05 00:11:30;;;;;;;112.33;95.90;;;18.20;99.90;;;;;;4993643;28;20272;-83
2021/06/05 00:13:59;;;;;;;117.97;100.80;;;18.00;99.90;;;;;;4995099;28;20167;-83
2021/06/05 00:16:29;;;;;;;127.43;102.13;;;18.00;99.90;;;;;;4993638;28;20190;-83
2021/06/05 00:18:55;;;;;;;120.87;100.00;;;18.00;99.90;;;;;;5002628;28;20167;-82
2021/06/05 00:21:24;;;;;;;124.33;101.07;;;18.00;99.90;;;;;;5014356;28;20174;-82
2021/06/05 00:23:50;;;;;;;117.47;95.63;;;18.10;99.90;;;;;;5014764;28;20178;-84
2021/06/05 00:26:16;;;;;;;123.23;99.57;;;18.30;99.90;;;;;;5015616;28;20193;-83
2021/06/05 00:28:42;;;;;;;123.53;98.47;;;18.10;99.90;;;;;;5013698;28;20622;-82
2021/06/05 00:31:08;;;;;;;130.40;101.93;;;18.20;99.90;;;;;;5008519;28;20270;-82
2021/06/05 00:33:34;;;;;;;124.97;99.67;;;18.20;99.90;;;;;;4995512;28;20186;-83
2021/06/05 00:36:01;;;;;;;124.47;100.97;;;18.00;99.90;;;;;;4995216;28;20175;-83
2021/06/05 00:38:27;;;;;;;119.67;96.90;;;18.00;99.90;;;;;;4994562;28;20648;-83
2021/06/05 00:40:55;;;;;;;119.23;97.80;;;18.00;99.90;;;;;;4994749;28;20174;-83
2021/06/05 00:43:28;;;;;;;120.70;97.77;;;18.10;99.90;;;;;;4995140;28;20187;-82
2021/06/05 00:45:55;;;;;;;121.20;96.37;;;18.10;99.90;;;;;;4994922;28;20175;-82
2021/06/05 00:48:22;;;;;;;115.83;95.17;;;18.00;99.90;;;;;;4994486;28;20262;-82
2021/06/05 00:50:50;;;;;;;116.40;94.63;;;18.10;99.90;;;;;;4994483;28;20226;-82
2021/06/05 00:53:20;;;;;;;121.97;96.67;;;18.10;99.90;;;;;;4994708;28;20652;-83
2021/06/05 00:55:49;;;;;;;124.73;95.63;;;18.10;99.90;;;;;;4994080;28;20527;-82
2021/06/05 00:58:16;;;;;;;118.70;94.87;;;18.10;99.90;;;;;;4994544;28;20179;-82
2021/06/05 01:00:44;;;;;;;125.40;93.80;;;18.20;99.90;;;;;;4993783;28;20234;-82
2021/06/05 01:03:10;;;;;;;122.60;94.07;;;18.00;99.90;;;;;;4993440;28;20175;-82
2021/06/05 01:05:38;;;;;;;124.23;94.33;;;17.90;99.90;;;;;;4993083;28;20665;-82
2021/06/05 01:08:17;;;;;;;124.10;92.17;;;18.00;99.90;;;;;;4994199;28;20233;-82
2021/06/05 01:10:46;;;;;;;122.17;92.93;;;18.10;99.90;;;;;;4992919;28;20226;-82
2021/06/05 01:13:12;;;;;;;120.80;93.20;;;18.10;99.90;;;;;;4994610;28;20163;-82
2021/06/05 01:15:48;;;;;;;123.50;92.20;;;18.10;99.90;;;;;;4994212;28;20172;-82
2021/06/05 01:18:47;;;;;;;125.07;93.37;;;18.20;99.90;;;;;;5016823;28;20151;-82
2021/06/05 01:21:41;;;;;;;122.37;91.10;;;18.20;99.90;;;;;;5031047;28;20187;-82
2021/06/05 01:24:25;;;;;;;117.33;88.13;;;18.20;99.90;;;;;;5020069;28;20177;-82
2021/06/05 01:27:03;;;;;;;122.40;87.30;;;18.20;99.90;;;;;;5016633;28;20197;-83
2021/06/05 01:29:34;;;;;;;113.80;86.10;;;18.30;99.90;;;;;;5015652;28;20268;-83
2021/06/05 01:32:09;;;;;;;126.53;91.47;;;18.10;99.90;;;;;;4998324;28;20179;-83
2021/06/05 01:34:46;;;;;;;152.87;88.23;;;18.20;99.90;;;;;;4993953;28;20155;-83
2021/06/05 01:37:15;;;;;;;170.07;90.40;;;18.00;99.90;;;;;;4994241;28;20219;-83
2021/06/05 01:39:43;;;;;;;197.53;97.83;;;17.70;99.90;;;;;;4993993;28;20175;-82
2021/06/05 01:42:14;;;;;;;216.53;101.63;;;17.50;99.90;;;;;;4994031;28;20189;-83
2021/06/05 01:44:41;;;;;;;236.23;108.37;;;17.40;99.90;;;;;;4993337;28;20175;-83
2021/06/05 01:47:06;;;;;;;237.73;107.33;;;17.40;99.90;;;;;;4994764;28;20189;-83
2021/06/05 01:49:33;;;;;;;258.90;110.00;;;17.20;99.90;;;;;;4993748;28;20202;-82
2021/06/05 01:52:07;;;;;;;262.17;114.73;;;17.30;99.90;;;;;;4994855;28;20213;-82
2021/06/05 01:54:46;;;;;;;272.47;114.90;;;17.20;99.90;;;;;;5018010;28;20222;-82
2021/06/05 01:57:18;;;;;;;272.87;115.80;;;17.20;99.90;;;;;;5018562;28;20151;-82
2021/06/05 01:59:45;;;;;;;279.20;118.80;;;16.90;99.90;;;;;;5017620;28;20186;-84
2021/06/05 02:02:11;;;;;;;273.73;118.23;;;16.90;99.90;;;;;;5003070;28;20183;-84
2021/06/05 02:04:37;;;;;;;313.90;124.00;;;16.80;99.90;;;;;;5001678;28;20262;-82
2021/06/05 02:07:07;;;;;;;287.03;118.87;;;16.80;99.90;;;;;;4999135;28;20620;-82
2021/06/05 02:09:35;;;;;;;299.57;122.23;;;16.90;99.90;;;;;;4998172;28;20199;-81
2021/06/05 02:12:25;;;;;;;284.77;122.50;;;16.80;99.90;;;;;;5005992;28;20183;-82
2021/06/05 02:15:10;;;;;;;273.33;122.83;;;16.50;99.90;;;;;;5019896;28;20163;-82
2021/06/05 02:17:39;;;;;;;311.30;122.20;;;16.50;99.90;;;;;;4996860;28;20181;-82
2021/06/05 02:20:26;;;;;;;312.13;127.53;;;16.40;99.90;;;;;;4996807;28;20334;-82
2021/06/05 02:22:53;;;;;;;301.30;126.10;;;16.50;99.90;;;;;;5000982;28;20185;-83
2021/06/05 02:25:23;;;;;;;307.00;128.23;;;16.50;99.90;;;;;;5001063;28;20171;-84
2021/06/05 02:28:01;;;;;;;301.40;124.93;;;16.60;99.90;;;;;;4998991;28;20651;-84
2021/06/05 02:30:29;;;;;;;314.90;128.30;;;16.60;99.90;;;;;;5000894;28;20202;-83
2021/06/05 02:32:56;;;;;;;274.03;123.73;;;16.40;99.90;;;;;;5007741;28;20174;-82
2021/06/05 02:35:26;;;;;;;277.00;118.20;;;16.50;99.90;;;;;;5012264;28;20178;-84
2021/06/05 02:37:52;;;;;;;270.33;118.60;;;16.40;99.90;;;;;;5004059;28;20205;-83
2021/06/05 02:40:21;;;;;;;254.60;117.03;;;16.30;99.90;;;;;;5000194;28;20264;-83
2021/06/05 02:42:47;;;;;;;242.07;115.00;;;16.30;99.90;;;;;;4997795;28;20190;-83
2021/06/05 02:45:22;;;;;;;241.00;112.63;;;16.30;99.90;;;;;;5002467;28;20639;-83
2021/06/05 02:47:53;;;;;;;235.97;112.33;;;16.30;99.90;;;;;;4999933;28;20165;-82
2021/06/05 02:50:20;;;;;;;218.23;106.67;;;16.40;99.90;;;;;;4998738;28;20265;-82
2021/06/05 02:52:46;;;;;;;212.83;106.83;;;16.40;99.90;;;;;;5007492;28;20178;-82
2021/06/05 02:55:19;;;;;;;203.33;104.80;;;16.40;99.90;;;;;;5017014;28;20155;-85
2021/06/05 02:57:45;;;;;;;190.10;102.50;;;16.40;99.90;;;;;;5013960;28;20171;-83
2021/06/05 03:00:22;;;;;;;177.17;97.60;;;16.50;99.90;;;;;;5014881;28;20171;-82
2021/06/05 03:02:48;;;;;;;172.10;97.03;;;16.50;99.90;;;;;;5013419;28;20174;-83
2021/06/05 03:05:14;;;;;;;176.70;100.27;;;16.40;99.90;;;;;;5014137;28;20167;-82
2021/06/05 03:07:40;;;;;;;153.07;91.63;;;16.30;99.90;;;;;;5017521;28;20692;-82
2021/06/05 03:10:07;;;;;;;158.30;93.27;;;16.20;99.90;;;;;;5009848;28;20237;-82
2021/06/05 03:12:33;;;;;;;147.77;89.43;;;16.30;99.90;;;;;;4997741;28;20179;-83
2021/06/05 03:15:01;;;;;;;155.60;94.47;;;16.30;99.90;;;;;;4998091;28;20167;-83
2021/06/05 03:17:28;;;;;;;142.53;89.50;;;16.50;99.90;;;;;;4997645;28;20163;-83
2021/06/05 03:19:55;;;;;;;133.67;86.03;;;16.40;99.90;;;;;;4998133;28;20167;-82
2021/06/05 03:22:21;;;;;;;130.80;86.90;;;16.40;99.90;;;;;;4997581;28;20639;-82
2021/06/05 03:24:48;;;;;;;130.23;83.40;;;16.40;99.90;;;;;;4995256;28;20171;-82
2021/06/05 03:27:14;;;;;;;117.63;81.90;;;16.30;99.90;;;;;;4996666;28;20604;-82
2021/06/05 03:29:40;;;;;;;127.47;84.50;;;16.30;99.90;;;;;;4997886;28;20219;-81
2021/06/05 03:32:07;;;;;;;124.43;85.53;;;16.20;99.90;;;;;;4997505;28;20182;-82
2021/06/05 03:34:32;;;;;;;120.97;81.87;;;16.20;99.90;;;;;;4995937;28;20638;-83
2021/06/05 03:36:58;;;;;;;110.43;78.30;;;16.20;99.90;;;;;;4995874;28;20292;-82
2021/06/05 03:39:24;;;;;;;96.37;71.60;;;16.20;99.90;;;;;;4996833;28;20634;-82
2021/06/05 03:41:49;;;;;;;82.70;63.83;;;16.30;99.90;;;;;;4996226;28;20543;-82
2021/06/05 03:44:15;;;;;;;82.33;64.47;;;16.20;99.90;;;;;;4996599;28;20181;-81
2021/06/05 03:46:41;;;;;;;89.17;68.67;;;16.10;99.90;;;;;;4997391;28;20194;-81
2021/06/05 03:49:09;;;;;;;82.13;63.33;;;16.10;99.90;;;;;;4996583;28;20575;-81
2021/06/05 03:51:35;;;;;;;84.07;63.70;;;16.20;99.90;;;;;;4996866;28;20693;-81
2021/06/05 03:54:01;;;;;;;85.37;66.13;;;16.20;99.90;;;;;;4995949;28;20602;-82
2021/06/05 03:56:27;;;;;;;88.90;68.53;;;16.20;99.90;;;;;;4995126;28;20171;-82
2021/06/05 03:58:53;;;;;;;87.93;69.33;;;16.20;99.90;;;;;;4995337;28;20229;-82
2021/06/05 04:01:24;;;;;;;88.43;67.30;;;16.20;99.90;;;;;;4996972;28;20702;-82
2021/06/05 04:03:50;;;;;;;102.87;72.23;;;16.10;99.90;;;;;;4996423;28;20182;-82
2021/06/05 04:06:19;;;;;;;100.30;70.97;;;16.10;99.90;;;;;;4995398;28;20167;-82
2021/06/05 04:08:45;;;;;;;96.10;69.43;;;16.10;99.90;;;;;;4996160;28;20174;-82
2021/06/05 04:11:11;;;;;;;98.07;70.80;;;16.10;99.90;;;;;;4996585;28;20206;-83
2021/06/05 04:13:37;;;;;;;112.67;72.90;;;16.10;99.90;;;;;;4995950;28;20171;-82
2021/06/05 04:16:04;;;;;;;106.37;72.77;;;16.00;99.90;;;;;;4996572;28;20175;-82
2021/06/05 04:18:33;;;;;;;109.27;73.43;;;16.10;99.90;;;;;;4995889;28;20264;-83
2021/06/05 04:21:01;;;;;;;94.80;66.07;;;16.10;99.90;;;;;;4995814;28;20191;-80
2021/06/05 04:23:27;;;;;;;108.00;70.47;;;16.00;99.90;;;;;;4994280;28;20171;-83
2021/06/05 04:25:53;;;;;;;100.60;67.30;;;16.00;99.90;;;;;;4995502;28;20170;-82
2021/06/05 04:28:22;;;;;;;90.63;65.13;;;15.90;99.90;;;;;;4996548;28;20338;-84
2021/06/05 04:30:48;;;;;;;93.20;68.00;;;15.90;99.90;;;;;;4995401;28;20257;-83
2021/06/05 04:33:18;;;;;;;87.93;63.57;;;15.80;99.90;;;;;;4993863;28;20173;-82
2021/06/05 04:35:44;;;;;;;90.37;67.57;;;15.70;99.90;;;;;;4995802;28;20264;-83
2021/06/05 04:38:11;;;;;;;93.07;67.40;;;15.90;99.90;;;;;;4994156;28;20177;-83
2021/06/05 04:40:38;;;;;;;90.87;65.03;;;15.90;99.90;;;;;;4995927;28;20174;-83
2021/06/05 04:43:05;;;;;;;86.07;62.03;;;15.80;99.90;;;;;;4994166;28;20213;-83
2021/06/05 04:45:30;;;;;;;82.83;62.40;;;15.80;99.90;;;;;;4995935;28;20176;-83
2021/06/05 04:47:57;;;;;;;80.40;59.20;;;15.70;99.90;;;;;;4995734;28;20172;-83
2021/06/05 04:50:25;;;;;;;63.93;55.27;;;15.70;99.90;;;;;;4995437;28;20212;-83
2021/06/05 04:52:51;;;;;;;59.83;50.27;;;15.70;99.90;;;;;;4995286;28;20666;-82
2021/06/05 04:55:17;;;;;;;60.90;52.13;;;15.70;99.90;;;;;;4994910;28;20185;-82
2021/06/05 04:57:43;;;;;;;71.03;53.93;;;15.60;99.90;;;;;;4994715;28;20271;-84
2021/06/05 05:00:13;;;;;;;59.50;52.23;;;15.70;99.90;;;;;;4996042;28;20275;-83
2021/06/05 05:02:40;;;;;;;61.87;51.93;;;15.70;99.90;;;;;;4997890;28;20702;-83
2021/06/05 05:05:06;;;;;;;57.33;51.13;;;15.70;99.90;;;;;;4996530;28;20177;-82
2021/06/05 05:07:32;;;;;;;60.30;52.13;;;15.60;99.90;;;;;;4999574;28;20629;-82
2021/06/05 05:09:58;;;;;;;59.00;51.23;;;15.70;99.90;;;;;;5011423;28;20239;-81
2021/06/05 05:12:24;;;;;;;54.60;48.57;;;15.60;99.90;;;;;;5007165;28;20160;-83
2021/06/05 05:14:50;;;;;;;59.20;49.80;;;15.70;99.90;;;;;;4996142;28;20178;-82
2021/06/05 05:17:15;;;;;;;57.00;47.57;;;15.70;99.90;;;;;;4995836;28;20178;-82
2021/06/05 05:19:41;;;;;;;56.30;47.10;;;15.80;99.90;;;;;;4994197;28;20195;-82
2021/06/05 05:22:07;;;;;;;55.93;46.43;;;15.90;99.90;;;;;;4994750;28;20631;-83
2021/06/05 05:24:33;;;;;;;53.80;46.03;;;15.80;99.90;;;;;;4996858;28;20246;-82
2021/06/05 05:26:59;;;;;;;53.03;45.63;;;15.90;99.90;;;;;;4996839;28;20178;-82
2021/06/05 05:29:25;;;;;;;57.40;46.00;;;15.80;99.90;;;;;;4997676;28;20186;-84
2021/06/05 05:31:50;;;;;;;50.37;45.03;;;15.80;99.90;;;;;;5011873;28;20221;-84
2021/06/05 05:34:16;;;;;;;53.07;46.47;;;15.80;99.90;;;;;;4999513;28;20246;-82
2021/06/05 05:36:44;;;;;;;53.83;47.43;;;15.80;99.90;;;;;;4998761;28;20267;-83
2021/06/05 05:39:16;;;;;;;55.87;48.27;;;15.80;99.90;;;;;;4999330;28;20180;-83
2021/06/05 05:41:43;;;;;;;55.70;47.07;;;15.70;99.90;;;;;;4998248;28;20296;-82
2021/06/05 05:44:09;;;;;;;57.00;48.47;;;15.70;99.90;;;;;;4998124;28;20180;-82
2021/06/05 05:46:36;;;;;;;53.93;45.87;;;15.70;99.90;;;;;;4999265;28;20635;-81
2021/06/05 05:49:03;;;;;;;53.30;47.43;;;15.70;99.90;;;;;;5001745;28;20168;-83
2021/06/05 05:51:29;;;;;;;56.77;47.20;;;15.70;99.90;;;;;;4997530;28;20225;-83
2021/06/05 05:53:56;;;;;;;61.03;47.30;;;15.70;99.90;;;;;;4999274;28;20643;-83
2021/06/05 05:56:25;;;;;;;55.27;46.23;;;15.70;99.90;;;;;;4999354;28;20532;-82
2021/06/05 05:58:53;;;;;;;53.27;46.43;;;15.70;99.90;;;;;;4998981;28;20175;-82
2021/06/05 06:01:20;;;;;;;56.50;49.40;;;15.70;99.90;;;;;;4999306;28;20176;-83
2021/06/05 06:03:51;;;;;;;59.33;47.97;;;15.70;99.90;;;;;;4998996;28;20208;-83
2021/06/05 06:06:18;;;;;;;55.50;48.53;;;15.80;99.90;;;;;;4999667;28;20184;-82
2021/06/05 06:08:44;;;;;;;65.13;52.03;;;15.80;99.90;;;;;;5000035;28;20624;-83
2021/06/05 06:11:12;;;;;;;68.60;50.50;;;15.80;99.90;;;;;;4999281;28;20685;-81
2021/06/05 06:13:38;;;;;;;64.47;52.43;;;15.80;99.90;;;;;;5018051;28;20169;-83
2021/06/05 06:16:07;;;;;;;64.63;53.73;;;15.70;99.90;;;;;;5021025;28;20163;-82
2021/06/05 06:18:34;;;;;;;68.30;53.63;;;15.70;99.90;;;;;;5021596;28;20174;-82
2021/06/05 06:21:00;;;;;;;69.90;53.47;;;15.80;99.90;;;;;;5021924;28;20179;-82
2021/06/05 06:23:28;;;;;;;76.50;56.63;;;15.80;99.90;;;;;;5009755;28;20188;-82
2021/06/05 06:25:56;;;;;;;72.70;58.37;;;15.70;99.90;;;;;;5000823;28;20179;-83
2021/06/05 06:28:28;;;;;;;79.67;58.83;;;15.60;99.90;;;;;;5002318;28;20175;-81
2021/06/05 06:30:57;;;;;;;78.70;58.57;;;15.60;99.90;;;;;;5000044;28;20197;-82
2021/06/05 06:33:26;;;;;;;81.83;58.10;;;15.50;99.90;;;;;;4997844;28;20174;-82
2021/06/05 06:35:54;;;;;;;82.03;59.17;;;15.50;99.90;;;;;;4997659;28;20171;-83
2021/06/05 06:38:31;;;;;;;90.83;63.13;;;15.50;99.90;;;;;;4995016;28;20221;-82
2021/06/05 06:40:58;;;;;;;84.37;63.07;;;15.50;99.90;;;;;;4997461;28;20201;-82
2021/06/05 06:43:27;;;;;;;87.53;61.07;;;15.50;99.90;;;;;;4997470;28;20219;-82
2021/06/05 06:45:53;;;;;;;95.47;65.80;;;15.70;99.90;;;;;;4996637;28;20181;-82
2021/06/05 06:48:20;;;;;;;102.40;66.83;;;15.60;99.90;;;;;;5001100;28;20263;-83
2021/06/05 06:50:48;;;;;;;98.40;66.20;;;15.50;99.90;;;;;;4998729;28;20216;-81
2021/06/05 06:53:15;;;;;;;102.20;65.97;;;15.60;99.90;;;;;;5017504;28;20190;-84
2021/06/05 06:55:40;;;;;;;104.47;69.57;;;15.50;99.90;;;;;;5035418;28;20176;-82
2021/06/05 06:58:06;;;;;;;99.47;65.63;;;15.50;99.90;;;;;;5035364;28;20548;-82
2021/06/05 07:00:36;;;;;;;97.73;66.63;;;15.50;99.90;;;;;;5021525;28;20181;-82
2021/06/05 07:03:09;;;;;;;94.43;65.03;;;15.60;99.90;;;;;;5019540;28;20172;-82
2021/06/05 07:05:51;;;;;;;102.43;68.10;;;15.60;99.90;;;;;;5020194;28;20177;-82
2021/06/05 07:08:36;;;;;;;112.03;68.47;;;15.60;99.90;;;;;;5017163;28;20164;-81
2021/06/05 07:11:17;;;;;;;108.07;69.97;;;15.60;99.90;;;;;;5018519;28;20203;-84
2021/06/05 07:13:43;;;;;;;101.93;67.57;;;15.50;99.90;;;;;;5016572;28;20262;-82
2021/06/05 07:16:09;;;;;;;108.80;69.53;;;15.40;99.90;;;;;;5016894;28;20187;-83
2021/06/05 07:18:36;;;;;;;104.50;69.13;;;15.40;99.90;;;;;;5018550;28;20233;-81
2021/06/05 07:21:07;;;;;;;109.17;71.57;;;15.50;99.90;;;;;;5017187;28;20547;-81
2021/06/05 07:23:34;;;;;;;103.43;70.17;;;15.40;99.90;;;;;;5014592;28;20227;-82
2021/06/05 07:26:03;;;;;;;101.43;68.00;;;15.40;99.90;;;;;;5008830;28;20194;-82
2021/06/05 07:28:41;;;;;;;103.03;67.17;;;15.50;99.90;;;;;;5018024;28;20183;-84
2021/06/05 07:31:08;;;;;;;106.33;69.67;;;15.50;99.90;;;;;;5015931;28;20210;-83
2021/06/05 07:33:34;;;;;;;104.27;68.40;;;15.60;99.90;;;;;;5018631;28;20168;-82
2021/06/05 07:36:00;;;;;;;91.63;63.60;;;15.60;99.90;;;;;;5019501;28;20172;-82
2021/06/05 07:38:27;;;;;;;80.70;61.37;;;15.60;99.90;;;;;;5018609;28;20179;-84
2021/06/05 07:40:54;;;;;;;71.70;55.53;;;15.70;99.90;;;;;;5016697;28;20272;-82
2021/06/05 07:43:23;;;;;;;79.47;58.73;;;15.60;99.90;;;;;;5023465;28;20172;-81
2021/06/05 07:45:49;;;;;;;82.93;58.70;;;15.50;99.90;;;;;;5018667;28;20232;-83
2021/06/05 07:48:15;;;;;;;81.03;59.90;;;15.60;99.90;;;;;;5016131;28;20572;-81
2021/06/05 07:50:43;;;;;;;77.20;60.00;;;15.70;99.90;;;;;;5026486;28;20307;-80
2021/06/05 07:53:10;;;;;;;82.63;62.90;;;15.70;99.90;;;;;;5027500;28;20207;-83
2021/06/05 07:55:36;;;;;;;79.43;60.97;;;15.70;99.90;;;;;;5016120;28;20175;-83
2021/06/05 07:58:04;;;;;;;80.90;60.93;;;15.70;99.90;;;;;;5015062;28;20173;-84
2021/06/05 08:00:33;;;;;;;83.63;64.13;;;15.60;99.90;;;;;;5016360;28;20189;-83
2021/06/05 08:02:59;;;;;;;85.53;63.57;;;15.60;99.90;;;;;;5015588;28;20232;-81
2021/06/05 08:05:25;;;;;;;87.33;64.90;;;15.60;99.90;;;;;;5007180;28;20160;-80
2021/06/05 08:07:51;;;;;;;88.33;65.07;;;15.50;99.90;;;;;;5009965;28;20181;-80
2021/06/05 08:10:19;;;;;;;87.23;64.73;;;15.50;99.90;;;;;;4990974;28;20199;-83
2021/06/05 08:12:44;;;;;;;89.93;66.87;;;15.50;99.90;;;;;;4996549;28;20189;-82
2021/06/05 08:15:13;;;;;;;81.20;63.53;;;15.50;99.90;;;;;;4996103;28;20181;-83
2021/06/05 08:17:39;;;;;;;84.30;65.80;;;15.40;99.90;;;;;;5000043;28;20336;-82
2021/06/05 08:20:08;;;;;;;83.97;65.23;;;15.50;99.90;;;;;;5014281;28;20253;-81
2021/06/05 08:22:34;;;;;;;86.97;65.43;;;15.60;99.90;;;;;;5015205;28;20186;-81
2021/06/05 08:25:00;;;;;;;85.67;64.40;;;15.50;99.90;;;;;;5011870;28;20185;-80
2021/06/05 08:27:27;;;;;;;83.77;66.83;;;15.60;99.90;;;;;;5011248;28;20173;-83
2021/06/05 08:29:54;;;;;;;83.13;65.57;;;15.70;99.90;;;;;;5007173;28;20209;-83
2021/06/05 08:32:19;;;;;;;79.90;66.70;;;15.70;99.90;;;;;;4995699;28;20185;-83
2021/06/05 08:34:45;;;;;;;88.47;68.93;;;15.80;99.90;;;;;;4995949;28;20178;-83
2021/06/05 08:37:11;;;;;;;81.37;64.17;;;15.90;99.90;;;;;;4996457;28;20267;-82
2021/06/05 08:39:37;;;;;;;80.87;64.67;;;15.80;99.90;;;;;;4996317;28;20186;-83
2021/06/05 08:42:06;;;;;;;81.40;66.03;;;15.70;99.90;;;;;;4996764;28;20173;-83
2021/06/05 08:44:40;;;;;;;83.80;65.33;;;15.70;99.90;;;;;;4995037;28;20169;-83
2021/06/05 08:47:24;;;;;;;83.47;64.60;;;15.70;99.90;;;;;;4995506;28;20183;-83
2021/06/05 08:49:50;;;;;;;82.17;63.47;;;15.80;99.90;;;;;;4996022;28;20722;-83
2021/06/05 08:52:40;;;;;;;79.67;63.10;;;15.80;99.90;;;;;;4995922;28;20220;-81
2021/06/05 08:55:29;;;;;;;75.60;60.67;;;15.70;99.90;;;;;;4991625;28;20266;-82
2021/06/05 08:58:12;;;;;;;71.50;58.80;;;15.60;99.90;;;;;;4993485;28;20184;-84
2021/06/05 09:00:46;;;;;;;74.10;58.77;;;15.60;99.90;;;;;;4993495;28;20255;-82
2021/06/05 09:03:18;;;;;;;74.83;60.47;;;15.60;99.90;;;;;;4993569;28;20180;-82
2021/06/05 09:05:52;;;;;;;80.87;63.47;;;15.70;99.90;;;;;;4995895;28;20267;-83
2021/06/05 09:08:19;;;;;;;80.47;62.27;;;15.80;99.90;;;;;;4994851;28;20181;-83
2021/06/05 09:10:47;;;;;;;79.67;63.83;;;15.80;99.90;;;;;;4993227;28;20658;-83
2021/06/05 09:13:14;;;;;;;85.17;69.63;;;15.80;99.90;;;;;;4991272;28;20240;-84
2021/06/05 09:15:41;;;;;;;84.90;68.23;;;15.70;99.90;;;;;;4994280;28;20268;-83
2021/06/05 09:18:10;;;;;;;92.93;70.90;;;15.70;99.90;;;;;;4995959;28;20174;-84
2021/06/05 09:20:42;;;;;;;91.90;73.67;;;15.70;99.90;;;;;;4993475;28;20185;-84
2021/06/05 09:23:31;;;;;;;97.77;76.07;;;15.60;99.90;;;;;;4989531;28;20218;-84
2021/06/05 09:26:17;;;;;;;109.00;80.80;;;15.70;99.90;;;;;;4986658;28;20181;-84
2021/06/05 09:28:43;;;;;;;112.13;84.23;;;15.80;99.90;;;;;;4994616;28;20380;-83
2021/06/05 09:31:17;;;;;;;114.57;86.23;;;15.70;99.90;;;;;;5011006;28;20214;-86
2021/06/05 09:33:43;;;;;;;114.83;84.50;;;15.70;99.90;;;;;;5012457;28;20175;-81
2021/06/05 09:36:17;;;;;;;119.43;87.30;;;15.60;99.90;;;;;;5014087;28;20202;-84
2021/06/05 09:38:53;;;;;;;116.87;86.00;;;15.70;99.90;;;;;;4994457;28;20190;-83
2021/06/05 09:41:40;;;;;;;108.57;83.37;;;15.50;99.90;;;;;;4994883;28;20263;-83
2021/06/05 09:44:13;;;;;;;100.70;79.30;;;15.50;99.90;;;;;;5011615;28;20182;-82
2021/06/05 09:46:52;;;;;;;90.87;73.50;;;15.60;99.90;;;;;;5014525;28;20256;-81
2021/06/05 09:49:40;;;;;;;91.10;72.23;;;15.70;99.90;;;;;;5014334;28;20195;-83
2021/06/05 09:52:26;;;;;;;91.23;76.97;;;15.60;99.90;;;;;;4998311;28;20183;-83
2021/06/05 09:54:57;;;;;;;92.43;74.50;;;15.60;99.90;;;;;;4992800;28;20237;-83
2021/06/05 09:57:34;;;;;;;87.57;75.47;;;15.60;99.90;;;;;;4994052;28;20684;-83
2021/06/05 10:00:15;;;;;;;86.80;71.83;;;15.60;99.90;;;;;;4997108;28;20171;-82
2021/06/05 10:02:49;;;;;;;81.03;67.50;;;15.60;99.90;;;;;;4994728;28;20631;-82
2021/06/05 10:05:42;;;;;;;82.97;67.63;;;15.60;99.90;;;;;;4994004;28;20187;-83
2021/06/05 10:08:38;;;;;;;76.50;63.53;;;15.60;99.90;;;;;;4989770;28;20191;-83
2021/06/05 10:11:39;;;;;;;72.77;61.87;;;15.70;99.90;;;;;;4975805;28;20222;-83
2021/06/05 10:14:10;;;;;;;73.30;62.83;;;15.80;99.90;;;;;;4975431;28;20174;-83
2021/06/05 10:16:41;;;;;;;66.50;59.50;;;15.70;99.90;;;;;;4984507;28;20179;-83
2021/06/05 10:19:40;;;;;;;68.80;61.40;;;15.50;99.90;;;;;;4996164;28;20221;-82
2021/06/05 10:22:08;;;;;;;70.10;62.43;;;15.60;99.90;;;;;;4997602;28;20661;-81
2021/06/05 10:25:01;;;;;;;75.70;67.50;;;15.70;99.90;;;;;;5000106;28;20177;-84
2021/06/05 10:27:35;;;;;;;79.73;67.00;;;15.70;99.90;;;;;;5001433;28;20175;-84
2021/06/05 10:30:28;;;;;;;79.93;66.57;;;15.50;99.90;;;;;;5000478;28;20190;-84
2021/06/05 10:32:57;;;;;;;74.83;66.20;;;15.50;99.90;;;;;;4980475;28;20190;-84
2021/06/05 10:35:32;;;;;;;77.77;67.30;;;15.50;99.90;;;;;;4998782;28;20170;-83
2021/06/05 10:38:43;;;;;;;72.20;64.20;;;15.40;99.90;;;;;;4998964;28;20171;-83
2021/06/05 10:41:14;;;;;;;77.80;66.60;;;15.40;99.90;;;;;;4994813;28;20590;-83
2021/06/05 10:43:40;;;;;;;71.47;60.83;;;15.40;99.90;;;;;;4994463;28;20181;-83
2021/06/05 10:46:35;;;;;;;62.53;54.13;;;15.40;99.90;;;;;;4981291;28;20164;-84
2021/06/05 10:49:31;;;;;;;54.23;48.37;;;15.40;99.90;;;;;;4979900;28;20166;-83
2021/06/05 10:52:26;;;;;;;55.90;49.80;;;15.30;99.90;;;;;;4997715;28;20204;-83
2021/06/05 10:55:16;;;;;;;60.70;51.60;;;15.30;99.90;;;;;;4992035;28;20183;-83
2021/06/05 10:57:48;;;;;;;58.33;50.50;;;15.30;99.90;;;;;;5002598;28;20183;-82
2021/06/05 11:00:42;;;;;;;51.33;44.80;;;15.30;99.90;;;;;;5004102;28;20178;-82
2021/06/05 11:03:27;;;;;;;48.80;43.47;;;15.30;99.90;;;;;;5014091;28;20183;-82
2021/06/05 11:06:04;;;;;;;50.17;44.47;;;15.40;99.90;;;;;;5010504;28;20168;-83
2021/06/05 11:08:40;;;;;;;55.10;47.37;;;15.40;99.90;;;;;;4997814;28;20172;-83
2021/06/05 11:11:08;;;;;;;51.23;45.63;;;15.50;99.90;;;;;;5008016;28;20231;-82
2021/06/05 11:13:37;;;;;;;54.63;48.03;;;15.60;99.90;;;;;;5019541;28;20257;-82
2021/06/05 11:16:10;;;;;;;62.97;55.97;;;15.60;99.90;;;;;;5013730;28;20233;-83
2021/06/05 11:18:46;;;;;;;60.60;52.60;;;15.50;99.90;;;;;;5000122;28;20545;-83
2021/06/05 11:21:24;;;;;;;56.97;51.03;;;15.50;99.90;;;;;;5001876;28;20182;-83
2021/06/05 11:24:18;;;;;;;56.63;50.17;;;15.50;99.90;;;;;;5011762;28;20186;-84
2021/06/05 11:26:55;;;;;;;54.83;48.87;;;15.40;99.90;;;;;;4997671;28;20666;-83
2021/06/05 11:29:29;;;;;;;57.13;51.10;;;15.70;99.90;;;;;;4996613;28;20522;-83
2021/06/05 11:32:03;;;;;;;62.13;51.30;;;15.60;99.90;;;;;;4995343;28;20220;-85
2021/06/05 11:34:37;;;;;;;57.50;50.50;;;15.70;99.90;;;;;;4998793;28;20265;-84
2021/06/05 11:37:04;;;;;;;56.50;50.37;;;15.70;99.90;;;;;;5001351;28;20270;-83
2021/06/05 11:39:29;;;;;;;59.13;52.90;;;15.70;99.90;;;;;;4997762;28;20197;-85
2021/06/05 11:41:58;;;;;;;43.53;39.20;;;15.70;99.90;;;;;;4989160;28;20848;-84
2021/06/05 11:44:37;;;;;;;43.17;38.57;;;15.60;99.90;;;;;;5021479;28;20189;-82
2021/06/05 11:47:16;;;;;;;39.83;35.63;;;15.60;99.90;;;;;;5019823;28;20301;-84
2021/06/05 11:50:01;;;;;;;41.63;36.27;;;15.60;99.90;;;;;;5016663;28;20193;-84
2021/06/05 11:52:30;;;;;;;30.83;26.57;;;15.70;99.90;;;;;;4998276;28;20944;-84
2021/06/05 11:54:59;;;;;;;35.90;28.03;;;15.70;99.90;;;;;;4999138;28;20174;-86
2021/06/05 11:57:32;;;;;;;36.23;31.87;;;15.70;99.90;;;;;;4995870;28;20179;-85
2021/06/05 12:00:22;;;;;;;36.50;32.57;;;15.70;99.90;;;;;;4997703;28;20222;-83
2021/06/05 12:03:22;;;;;;;48.07;42.53;;;15.70;99.90;;;;;;4997060;28;20181;-84
2021/06/05 12:05:47;;;;;;;54.37;46.67;;;15.70;99.90;;;;;;4996554;28;20620;-84
2021/06/05 12:08:24;;;;;;;62.43;49.83;;;15.80;99.90;;;;;;5003186;28;20294;-83
2021/06/05 12:10:50;;;;;;;66.87;56.23;;;15.70;99.90;;;;;;5017740;28;20197;-84
2021/06/05 12:13:27;;;;;;;67.43;58.97;;;15.70;99.90;;;;;;4998906;28;20206;-85
2021/06/05 12:15:56;;;;;;;62.57;53.13;;;15.70;99.90;;;;;;4999109;28;20181;-84
2021/06/05 12:18:24;;;;;;;56.47;49.17;;;15.70;99.90;;;;;;4999252;28;20201;-85
2021/06/05 12:20:59;;;;;;;57.20;48.57;;;15.70;99.90;;;;;;4999419;28;20266;-86
2021/06/05 12:23:30;;;;;;;49.63;44.10;;;15.60;99.90;;;;;;4998772;28;20166;-85
2021/06/05 12:26:15;;;;;;;43.13;38.47;;;15.80;99.90;;;;;;5003678;28;20171;-85
2021/06/05 12:28:43;;;;;;;38.27;33.77;;;15.80;99.90;;;;;;5001469;28;20214;-84
2021/06/05 12:31:23;;;;;;;38.70;33.83;;;15.80;99.90;;;;;;5000423;28;20311;-86
2021/06/05 12:34:00;;;;;;;36.50;32.43;;;15.80;99.90;;;;;;5002391;28;20175;-83
2021/06/05 12:36:33;;;;;;;39.53;34.87;;;15.80;99.90;;;;;;5004151;28;20247;-83
2021/06/05 12:39:23;;;;;;;41.43;36.70;;;15.90;99.90;;;;;;4996371;28;20187;-84
2021/06/05 12:41:50;;;;;;;54.93;46.47;;;16.00;99.90;;;;;;4995896;28;20258;-84
2021/06/05 12:44:26;;;;;;;56.53;50.83;;;15.80;99.90;;;;;;4996216;28;20171;-84